Time;durP1;ratioP1;P1;durP2;ratioP2;P2;SDS_P1;SDS_P2;PMS_P1;PMS_P2;Temp;Humidity;BMP_temperature;BMP_pressure;BME280_temperature;BME280_humidity;BME280_pressure;Samples;Min_cycle;Max_cycle;Signal;HPM_P1;HPM_P2
2022/01/23 00:01:54;;;;;;;82.18;39.53;;;5.10;99.90;;;;;;5005360;28;20520;-90
2022/01/23 00:04:21;;;;;;;74.78;36.33;;;5.10;99.90;;;;;;4963118;28;20100;-91
2022/01/23 00:06:48;;;;;;;68.82;34.08;;;5.10;99.90;;;;;;4970964;28;20172;-90
2022/01/23 00:09:18;;;;;;;65.63;32.75;;;5.10;99.90;;;;;;4966680;28;20029;-91
2022/01/23 00:11:50;;;;;;;82.65;39.38;;;5.10;99.90;;;;;;4984110;28;20116;-92
2022/01/23 00:19:58;;;;;;;58.08;28.85;;;5.10;99.90;;;;;;4964221;28;20034;-90
2022/01/23 00:22:40;;;;;;;74.47;36.95;;;5.10;99.90;;;;;;4975761;28;20033;-91
2022/01/23 00:30:36;;;;;;;81.55;37.00;;;5.10;99.90;;;;;;4988540;28;20037;-91
2022/01/23 00:33:03;;;;;;;79.15;37.08;;;5.10;99.90;;;;;;4967247;28;20033;-91
2022/01/23 00:35:29;;;;;;;78.90;36.05;;;5.10;99.90;;;;;;4986608;28;20040;-91
2022/01/23 00:37:55;;;;;;;62.53;27.02;;;5.00;99.90;;;;;;4975128;28;20030;-91
2022/01/23 00:40:21;;;;;;;73.88;33.47;;;5.10;99.90;;;;;;4985594;28;20053;-91
2022/01/23 00:42:47;;;;;;;64.15;29.60;;;5.10;99.90;;;;;;4981472;28;20056;-90
2022/01/23 00:48:04;;;;;;;82.60;36.08;;;5.00;99.90;;;;;;5002072;28;20534;-91
2022/01/23 00:50:34;;;;;;;71.75;35.00;;;5.00;99.90;;;;;;4968228;28;20025;-91
2022/01/23 00:53:00;;;;;;;66.38;33.03;;;5.00;99.90;;;;;;4988445;28;20141;-90
2022/01/23 00:55:25;;;;;;;73.60;34.78;;;5.00;99.90;;;;;;4990761;28;20492;-91
2022/01/23 00:57:51;;;;;;;75.90;34.17;;;5.00;99.90;;;;;;4970350;28;20037;-90
2022/01/23 01:00:17;;;;;;;69.47;33.10;;;5.00;99.90;;;;;;4983162;28;20048;-92
2022/01/23 01:02:43;;;;;;;81.65;34.95;;;5.00;99.90;;;;;;4962955;28;20545;-91
2022/01/23 01:05:09;;;;;;;82.85;36.72;;;5.00;99.90;;;;;;4974867;28;20033;-91
2022/01/23 01:07:35;;;;;;;79.05;34.67;;;5.00;99.90;;;;;;4975301;28;20027;-91
2022/01/23 01:10:07;;;;;;;80.75;35.97;;;5.00;99.90;;;;;;4983643;28;20025;-91
2022/01/23 01:12:45;;;;;;;84.03;39.08;;;5.00;99.90;;;;;;4973802;28;20120;-91
2022/01/23 01:31:38;;;;;;;59.85;27.33;;;4.90;99.90;;;;;;4990656;28;20036;-91
2022/01/23 01:34:16;;;;;;;59.45;28.35;;;4.90;99.90;;;;;;4988115;28;20029;-89
2022/01/23 01:36:49;;;;;;;52.17;25.05;;;4.90;99.90;;;;;;4983449;28;20391;-90
2022/01/23 01:39:17;;;;;;;67.40;31.33;;;4.90;99.90;;;;;;4988704;28;20362;-90
2022/01/23 01:41:43;;;;;;;49.78;24.15;;;4.80;99.90;;;;;;4997839;28;20065;-91
2022/01/23 01:44:09;;;;;;;53.15;25.13;;;4.90;99.90;;;;;;4979075;28;20075;-91
2022/01/23 01:46:35;;;;;;;62.70;26.85;;;4.90;99.90;;;;;;4984384;28;20442;-91
2022/01/23 01:49:00;;;;;;;48.95;24.65;;;4.90;99.90;;;;;;4985538;28;20034;-91
2022/01/23 01:51:30;;;;;;;51.13;24.48;;;4.90;99.90;;;;;;4988460;28;20025;-91
2022/01/23 01:54:03;;;;;;;62.88;28.92;;;4.90;99.90;;;;;;4988495;28;20501;-90
2022/01/23 01:56:36;;;;;;;60.45;27.90;;;5.10;99.90;;;;;;4989497;28;20056;-90
2022/01/23 01:59:17;;;;;;;62.95;28.17;;;4.90;99.90;;;;;;4975529;28;20104;-91
2022/01/23 02:55:15;;;;;;;81.10;34.63;;;5.00;99.90;;;;;;4988991;28;20038;-92
2022/01/23 02:57:53;;;;;;;52.80;23.27;;;4.80;99.90;;;;;;4989179;28;20116;-92
2022/01/23 03:00:20;;;;;;;79.63;34.38;;;4.90;99.90;;;;;;4983938;28;20220;-90
2022/01/23 03:02:50;;;;;;;75.65;34.13;;;4.90;99.90;;;;;;4990847;28;20105;-92
2022/01/23 03:05:35;;;;;;;70.93;32.83;;;4.90;99.90;;;;;;4980551;28;20045;-94
2022/01/23 03:10:40;;;;;;;80.97;35.25;;;4.90;99.90;;;;;;4992386;28;20120;-90
2022/01/23 03:13:42;;;;;;;62.17;28.45;;;4.90;99.90;;;;;;4992464;28;20061;-91
2022/01/23 03:24:06;;;;;;;51.78;26.10;;;4.90;99.90;;;;;;4987110;28;20029;-91
2022/01/23 03:24:45;;;;;;;65.57;29.07;;;4.80;99.90;;;;;;4972201;28;20080;-92
2022/01/23 03:30:02;;;;;;;53.65;23.95;;;4.80;99.90;;;;;;5003595;28;20029;-91
2022/01/23 03:32:38;;;;;;;51.10;23.85;;;4.80;99.90;;;;;;4988340;28;20708;-91
2022/01/23 03:35:05;;;;;;;78.57;33.10;;;4.90;99.90;;;;;;4990298;28;20143;-90
2022/01/23 03:37:34;;;;;;;65.40;30.52;;;4.90;99.90;;;;;;4975036;28;20021;-91
2022/01/23 03:39:59;;;;;;;66.97;31.27;;;4.80;99.90;;;;;;4988959;28;20049;-91
2022/01/23 03:42:28;;;;;;;74.40;32.65;;;4.80;99.90;;;;;;4984372;28;20033;-91
2022/01/23 03:49:59;;;;;;;73.05;30.02;;;4.70;99.90;;;;;;4998282;28;20046;-91
2022/01/23 03:52:26;;;;;;;70.72;30.00;;;4.80;99.90;;;;;;4976436;28;20029;-91
2022/01/23 03:54:52;;;;;;;67.03;30.20;;;4.80;99.90;;;;;;4986436;28;20093;-92
2022/01/23 03:57:18;;;;;;;45.97;22.20;;;4.80;99.90;;;;;;4986343;28;20540;-91
2022/01/23 03:59:43;;;;;;;66.60;29.20;;;4.80;99.90;;;;;;4984220;28;20073;-91
2022/01/23 04:02:09;;;;;;;42.78;20.85;;;4.80;99.90;;;;;;4983006;28;20116;-91
2022/01/23 04:07:23;;;;;;;46.20;21.90;;;4.80;99.90;;;;;;4996666;28;20033;-90
2022/01/23 04:09:49;;;;;;;70.63;31.88;;;4.80;99.90;;;;;;4969864;28;20100;-90
2022/01/23 04:12:28;;;;;;;56.75;24.77;;;4.80;99.90;;;;;;4987775;28;20494;-90
2022/01/23 04:45:20;;;;;;;55.55;24.00;;;4.80;99.90;;;;;;5001186;28;20436;-90
2022/01/23 05:04:29;;;;;;;68.70;29.85;;;4.90;99.90;;;;;;4984148;28;20030;-91
2022/01/23 05:07:00;;;;;;;59.58;28.60;;;4.80;99.90;;;;;;4969165;28;20036;-90
2022/01/23 05:09:26;;;;;;;40.03;20.58;;;4.80;99.90;;;;;;4975288;28;20034;-89
2022/01/23 05:11:55;;;;;;;47.38;20.42;;;4.80;99.90;;;;;;4975997;28;20034;-90
2022/01/23 05:14:28;;;;;;;38.72;19.30;;;4.80;99.90;;;;;;4965644;28;20096;-90
2022/01/23 05:16:54;;;;;;;64.55;28.55;;;4.80;99.90;;;;;;4981178;28;20041;-91
2022/01/23 05:19:20;;;;;;;71.88;30.17;;;4.90;99.90;;;;;;4977862;28;20025;-90
2022/01/23 05:24:33;;;;;;;71.90;30.90;;;4.90;99.90;;;;;;4989073;28;20048;-91
2022/01/23 05:26:59;;;;;;;81.30;34.35;;;4.90;99.90;;;;;;4977242;28;20029;-91
2022/01/23 05:29:25;;;;;;;96.82;38.03;;;5.00;99.90;;;;;;4985814;28;20033;-90
2022/01/23 05:31:52;;;;;;;97.72;37.38;;;5.00;99.90;;;;;;4960782;28;20038;-89
2022/01/23 05:34:20;;;;;;;64.75;27.85;;;5.00;99.90;;;;;;4985768;28;20443;-90
2022/01/23 05:36:46;;;;;;;66.88;30.85;;;4.90;99.90;;;;;;4987899;28;20061;-90
2022/01/23 05:39:13;;;;;;;70.28;28.33;;;4.80;99.90;;;;;;4985507;28;20033;-90
2022/01/23 05:41:39;;;;;;;73.40;30.83;;;4.90;99.90;;;;;;4981338;28;20524;-91
2022/01/23 05:44:05;;;;;;;98.18;37.22;;;4.90;99.90;;;;;;4980193;28;20029;-90
2022/01/23 05:46:30;;;;;;;59.00;24.80;;;5.00;99.90;;;;;;4956567;28;20159;-90
2022/01/23 05:48:56;;;;;;;66.93;29.33;;;4.90;99.90;;;;;;4967507;28;20145;-90
2022/01/23 05:51:22;;;;;;;83.20;33.22;;;5.00;99.90;;;;;;4946726;28;20042;-91
2022/01/23 05:53:48;;;;;;;89.72;35.65;;;5.00;99.90;;;;;;4962979;28;20042;-90
2022/01/23 05:56:16;;;;;;;105.28;38.05;;;4.90;99.90;;;;;;4978889;28;20064;-90
2022/01/23 05:58:42;;;;;;;90.22;35.97;;;4.90;99.90;;;;;;4967799;28;20037;-89
2022/01/23 06:01:08;;;;;;;50.95;22.02;;;4.90;99.90;;;;;;4990389;28;20043;-90
2022/01/23 06:03:33;;;;;;;94.93;34.70;;;4.90;99.90;;;;;;4982015;28;20030;-90
2022/01/23 06:06:00;;;;;;;67.82;28.98;;;4.80;99.90;;;;;;4981117;28;20058;-91
2022/01/23 06:08:27;;;;;;;60.88;24.63;;;4.90;99.90;;;;;;4976786;28;20034;-90
2022/01/23 06:10:58;;;;;;;64.97;26.05;;;4.90;99.90;;;;;;4985456;28;20080;-92
2022/01/23 06:13:24;;;;;;;51.88;22.45;;;4.90;99.90;;;;;;4980967;28;20060;-91
2022/01/23 06:15:50;;;;;;;67.72;27.40;;;4.90;99.90;;;;;;4975787;28;20036;-92
2022/01/23 06:18:19;;;;;;;61.78;25.65;;;4.90;99.90;;;;;;4950828;28;20033;-92
2022/01/23 06:20:47;;;;;;;47.85;20.48;;;4.90;99.90;;;;;;4972943;28;20059;-93
2022/01/23 06:23:16;;;;;;;65.20;26.65;;;4.90;99.90;;;;;;4957319;28;20032;-93
2022/01/23 06:25:44;;;;;;;58.85;24.52;;;4.90;99.90;;;;;;4274857;28;10020718;-92
2022/01/23 06:28:21;;;;;;;61.22;24.85;;;5.00;99.90;;;;;;4970147;28;20653;-91
2022/01/23 06:30:47;;;;;;;102.65;38.53;;;4.90;99.90;;;;;;4992985;28;20044;-93
2022/01/23 06:33:23;;;;;;;;;;;;;;;;;;;;;
2022/01/23 06:35:51;;;;;;;90.80;32.67;;;5.00;99.90;;;;;;4994497;28;20030;-91
2022/01/23 06:38:17;;;;;;;62.88;25.50;;;4.90;99.90;;;;;;4963731;28;20021;-92
2022/01/23 06:40:45;;;;;;;50.30;20.80;;;4.90;99.90;;;;;;4969502;28;20394;-92
2022/01/23 06:43:11;;;;;;;62.67;26.55;;;4.80;99.90;;;;;;4978424;28;20022;-91
2022/01/23 06:45:37;;;;;;;80.60;32.15;;;4.90;99.90;;;;;;4975993;28;20470;-92
2022/01/23 06:48:28;;;;;;;47.80;21.52;;;5.00;99.90;;;;;;4987096;28;20033;-93
2022/01/23 06:51:05;;;;;;;64.13;27.38;;;4.90;99.90;;;;;;4957247;28;20065;-93
2022/01/23 06:53:33;;;;;;;97.82;36.78;;;5.00;99.90;;;;;;4961583;28;20760;-92
2022/01/23 06:55:59;;;;;;;80.03;31.45;;;5.00;99.90;;;;;;4968803;28;20034;-92
2022/01/23 06:58:25;;;;;;;58.65;24.10;;;4.90;99.90;;;;;;4985587;28;20026;-93
2022/01/23 07:00:55;;;;;;;93.22;34.55;;;4.90;99.90;;;;;;4977867;28;20055;-92
2022/01/23 07:03:21;;;;;;;76.75;31.05;;;5.00;99.90;;;;;;4940558;28;20086;-91
2022/01/23 07:05:47;;;;;;;109.03;38.75;;;4.90;99.90;;;;;;4963702;28;20034;-92
2022/01/23 07:08:12;;;;;;;64.38;26.92;;;4.90;99.90;;;;;;4990487;28;20028;-92
2022/01/23 07:10:38;;;;;;;54.50;23.13;;;4.90;99.90;;;;;;4988737;28;20030;-92
2022/01/23 07:13:10;;;;;;;53.67;22.98;;;4.90;99.90;;;;;;4970793;28;20072;-91
2022/01/23 07:15:35;;;;;;;48.20;21.65;;;4.90;99.90;;;;;;4994508;28;20069;-91
2022/01/23 07:18:01;;;;;;;87.47;33.78;;;4.90;99.90;;;;;;4972296;28;20752;-91
2022/01/23 07:20:27;;;;;;;84.90;32.63;;;4.90;99.90;;;;;;4975452;28;20025;-92
2022/01/23 07:22:55;;;;;;;103.38;37.05;;;5.00;99.90;;;;;;4983369;28;20063;-91
2022/01/23 07:25:20;;;;;;;59.45;23.92;;;5.00;99.90;;;;;;4977433;28;20036;-91
2022/01/23 07:27:51;;;;;;;76.60;29.92;;;5.00;99.90;;;;;;4962143;28;20222;-91
2022/01/23 07:30:30;;;;;;;57.70;23.90;;;4.90;99.90;;;;;;4983722;28;20095;-92
2022/01/23 07:32:56;;;;;;;64.45;24.50;;;4.90;99.90;;;;;;4968756;28;20457;-91
2022/01/23 07:35:22;;;;;;;93.18;34.15;;;4.90;99.90;;;;;;5004909;28;20033;-92
2022/01/23 07:37:47;;;;;;;80.60;30.92;;;5.10;99.90;;;;;;4982550;28;20630;-92
2022/01/23 07:40:13;;;;;;;76.95;27.92;;;5.00;99.90;;;;;;4987684;28;20040;-92
2022/01/23 07:42:39;;;;;;;73.72;24.23;;;5.00;99.90;;;;;;4987992;28;20034;-90
2022/01/23 07:45:08;;;;;;;78.28;29.35;;;5.00;99.90;;;;;;4987502;28;20034;-92
2022/01/23 07:47:34;;;;;;;80.22;29.90;;;5.00;99.90;;;;;;4987892;28;20045;-90
2022/01/23 07:50:01;;;;;;;65.45;24.40;;;5.00;99.90;;;;;;4986013;28;20033;-91
2022/01/23 07:52:30;;;;;;;75.30;28.70;;;4.90;99.90;;;;;;4988926;28;20385;-92
2022/01/23 07:54:56;;;;;;;69.47;26.30;;;5.00;99.90;;;;;;4996099;28;20033;-91
2022/01/23 07:57:21;;;;;;;67.97;27.60;;;5.10;99.90;;;;;;4989575;28;20556;-91
2022/01/23 07:59:47;;;;;;;70.90;28.83;;;5.10;99.90;;;;;;4978075;28;20037;-92
2022/01/23 08:04:48;;;;;;;62.38;24.98;;;5.00;99.90;;;;;;4974591;23;20051;-88
2022/01/23 08:10:05;;;;;;;112.85;39.45;;;5.00;99.90;;;;;;4946213;28;20172;-88
2022/01/23 08:12:32;;;;;;;102.00;37.60;;;5.00;99.90;;;;;;4935011;28;20757;-89
2022/01/23 08:14:58;;;;;;;111.68;39.75;;;5.00;99.90;;;;;;4926393;28;20028;-89
2022/01/23 08:17:24;;;;;;;93.70;34.72;;;5.00;99.90;;;;;;4939652;28;20149;-89
2022/01/23 08:19:51;;;;;;;66.35;24.45;;;5.00;99.90;;;;;;4953515;28;20066;-89
2022/01/23 08:22:17;;;;;;;73.88;26.98;;;5.00;99.90;;;;;;4948282;28;20059;-88
2022/01/23 08:24:43;;;;;;;84.53;30.70;;;5.10;99.90;;;;;;4934248;28;20073;-89
2022/01/23 08:27:10;;;;;;;75.50;26.52;;;5.10;99.90;;;;;;4952970;28;20117;-88
2022/01/23 08:29:35;;;;;;;64.97;27.70;;;5.10;99.90;;;;;;4937628;28;20042;-88
2022/01/23 08:32:04;;;;;;;71.15;27.25;;;5.10;99.90;;;;;;4946067;28;20037;-89
2022/01/23 08:34:30;;;;;;;84.78;30.27;;;5.10;99.90;;;;;;4946389;28;20081;-89
2022/01/23 08:36:56;;;;;;;59.35;23.88;;;5.10;99.90;;;;;;4929908;28;20038;-89
2022/01/23 08:39:26;;;;;;;87.57;31.33;;;5.20;99.90;;;;;;4975049;28;20035;-89
2022/01/23 08:41:52;;;;;;;108.88;36.63;;;5.30;99.90;;;;;;4935372;28;20045;-89
2022/01/23 08:44:22;;;;;;;69.38;26.52;;;5.20;99.90;;;;;;4930933;28;20031;-89
2022/01/23 08:46:47;;;;;;;113.30;40.05;;;5.20;99.90;;;;;;4945245;28;20038;-89
2022/01/23 08:49:13;;;;;;;72.15;27.48;;;5.30;99.90;;;;;;4936305;28;20038;-89
2022/01/23 08:51:42;;;;;;;82.22;29.60;;;5.30;99.90;;;;;;4945530;28;20074;-88
2022/01/23 08:54:08;;;;;;;78.95;27.80;;;5.30;99.90;;;;;;4930990;28;20470;-89
2022/01/23 08:56:36;;;;;;;86.70;33.95;;;5.30;99.90;;;;;;4935962;28;20041;-89
2022/01/23 08:59:16;;;;;;;86.70;32.58;;;5.40;99.90;;;;;;4915366;28;20030;-89
2022/01/23 09:01:41;;;;;;;92.43;33.08;;;5.30;99.90;;;;;;4920015;28;20042;-89
2022/01/23 09:04:07;;;;;;;84.25;30.65;;;5.30;99.90;;;;;;4939731;28;20036;-89
2022/01/23 09:06:45;;;;;;;74.47;28.02;;;5.40;99.90;;;;;;4942654;28;20062;-89
2022/01/23 09:09:19;;;;;;;90.65;33.55;;;5.40;99.90;;;;;;4933937;28;20121;-89
2022/01/23 09:14:25;;;;;;;84.57;33.03;;;5.40;99.90;;;;;;4958464;28;20395;-88
2022/01/23 09:16:51;;;;;;;103.15;35.25;;;5.50;99.90;;;;;;4940106;28;20038;-88
2022/01/23 09:19:34;;;;;;;105.95;36.80;;;5.50;99.90;;;;;;4937899;28;20061;-88
2022/01/23 09:22:03;;;;;;;82.93;31.52;;;5.50;99.90;;;;;;4950750;28;20096;-87
2022/01/23 09:24:32;;;;;;;99.50;36.25;;;5.40;99.90;;;;;;4949670;28;20031;-89
2022/01/23 09:27:06;;;;;;;114.50;39.95;;;5.60;99.90;;;;;;4948923;28;20031;-88
2022/01/23 09:29:43;;;;;;;102.38;37.08;;;5.60;99.90;;;;;;4953955;28;20057;-88
2022/01/23 09:32:13;;;;;;;95.78;34.70;;;5.60;99.90;;;;;;4938171;28;20370;-88
2022/01/23 09:34:42;;;;;;;101.28;38.22;;;5.70;99.90;;;;;;4945469;28;20089;-88
2022/01/23 09:37:23;;;;;;;70.70;26.58;;;5.70;99.90;;;;;;4935942;28;20533;-88
2022/01/23 09:39:52;;;;;;;67.05;25.23;;;5.70;99.90;;;;;;4928330;28;20070;-88
2022/01/23 09:42:26;;;;;;;100.30;36.45;;;5.80;99.90;;;;;;4934415;28;20088;-88
2022/01/23 09:44:57;;;;;;;76.05;29.15;;;5.80;99.90;;;;;;4947890;28;20030;-89
2022/01/23 09:47:25;;;;;;;96.97;34.15;;;5.90;99.90;;;;;;4940087;28;20031;-89
2022/01/23 09:49:51;;;;;;;75.80;29.30;;;5.80;99.90;;;;;;4898700;28;20031;-89
2022/01/23 09:52:18;;;;;;;71.50;27.45;;;6.00;99.90;;;;;;4938278;28;20035;-89
2022/01/23 09:55:06;;;;;;;90.90;33.10;;;6.00;99.90;;;;;;4933916;28;20374;-89
2022/01/23 09:57:41;;;;;;;62.50;24.30;;;6.00;99.90;;;;;;4902827;28;20064;-89
2022/01/23 10:00:15;;;;;;;97.35;33.30;;;6.20;99.90;;;;;;4930722;28;20035;-88
2022/01/23 10:02:43;;;;;;;73.28;26.77;;;6.20;99.90;;;;;;4917824;28;20774;-88
2022/01/23 10:05:14;;;;;;;71.88;26.75;;;6.30;99.90;;;;;;4928814;28;20497;-88
2022/01/23 10:08:11;;;;;;;109.68;39.50;;;6.30;99.90;;;;;;4921060;28;20444;-88
2022/01/23 10:10:40;;;;;;;;;;;6.50;99.90;;;;;;4949192;28;20045;-89
2022/01/23 10:13:05;;;;;;;76.53;28.88;;;6.50;99.90;;;;;;4945172;28;19910;-89
2022/01/23 10:15:32;;;;;;;72.35;28.13;;;6.40;99.90;;;;;;4926381;28;20035;-89
2022/01/23 10:17:59;;;;;;;100.10;36.22;;;6.50;99.90;;;;;;4934210;28;20047;-89
2022/01/23 10:20:35;;;;;;;64.97;25.55;;;6.60;99.90;;;;;;4941279;28;20130;-89
2022/01/23 10:23:01;;;;;;;70.15;26.33;;;6.80;99.90;;;;;;4944022;28;20030;-89
2022/01/23 10:25:40;;;;;;;93.47;34.88;;;6.70;99.90;;;;;;4926803;28;20089;-88
2022/01/23 10:28:30;;;;;;;98.20;35.92;;;6.90;99.90;;;;;;4940207;28;21223;-88
2022/01/23 10:31:00;;;;;;;108.03;38.90;;;7.00;99.90;;;;;;4961429;28;20022;-88
2022/01/23 10:37:11;;;;;;;60.17;23.30;;;7.20;99.90;;;;;;4945842;28;20046;-89
2022/01/23 10:39:45;;;;;;;78.72;31.15;;;7.00;99.90;;;;;;4940595;28;20039;-89
2022/01/23 10:42:31;;;;;;;80.72;32.72;;;7.20;99.90;;;;;;4944373;28;20046;-89
2022/01/23 10:48:01;;;;;;;75.10;30.50;;;7.10;99.90;;;;;;4944274;28;20004;-89
2022/01/23 10:50:27;;;;;;;70.47;30.17;;;7.30;99.90;;;;;;4908637;28;20062;-89
2022/01/23 10:53:07;;;;;;;71.90;27.42;;;7.40;99.90;;;;;;4919251;28;20506;-89
2022/01/23 10:55:34;;;;;;;68.72;27.77;;;7.40;99.90;;;;;;4962713;28;20486;-89
2022/01/23 10:58:02;;;;;;;58.67;24.02;;;7.40;99.90;;;;;;4925724;28;20043;-89
2022/01/23 11:00:38;;;;;;;59.95;25.95;;;7.40;99.90;;;;;;4924129;28;20065;-89
2022/01/23 11:03:21;;;;;;;71.00;27.35;;;7.40;99.90;;;;;;4940999;28;20034;-89
2022/01/23 11:05:54;;;;;;;56.33;21.58;;;7.50;99.90;;;;;;4937249;28;20046;-89
2022/01/23 11:08:22;;;;;;;68.03;28.15;;;7.60;99.90;;;;;;4934131;28;20044;-89
2022/01/23 11:11:05;;;;;;;69.85;27.13;;;7.80;99.90;;;;;;4964786;28;20421;-88
2022/01/23 11:19:57;;;;;;;60.33;24.25;;;8.00;99.90;;;;;;4979552;28;20101;-90
2022/01/23 11:22:30;;;;;;;71.80;28.13;;;7.80;99.90;;;;;;4914024;28;20054;-89
2022/01/23 11:25:33;;;;;;;57.40;22.25;;;8.00;99.90;;;;;;4943907;28;20752;-89
2022/01/23 11:28:03;;;;;;;60.88;23.88;;;8.10;99.90;;;;;;4937243;28;20034;-89
2022/01/23 11:30:41;;;;;;;58.83;23.13;;;8.20;99.90;;;;;;4948229;28;20121;-89
2022/01/23 11:33:09;;;;;;;58.72;23.65;;;8.10;99.90;;;;;;4965802;28;20038;-89
2022/01/23 11:35:39;;;;;;;62.13;24.33;;;8.20;99.90;;;;;;4928986;28;20038;-89
2022/01/23 11:38:14;;;;;;;53.03;22.63;;;8.30;99.90;;;;;;4933967;28;20026;-89
2022/01/23 11:54:41;;;;;;;50.63;19.33;;;8.60;99.90;;;;;;4955588;28;20037;-89
2022/01/23 11:57:38;;;;;;;42.05;18.30;;;8.40;99.90;;;;;;4945534;28;20026;-89
2022/01/23 12:00:11;;;;;;;48.90;21.27;;;8.60;99.90;;;;;;4971689;28;20126;-89
2022/01/23 12:02:40;;;;;;;52.92;21.25;;;8.80;99.90;;;;;;4935362;28;20044;-89
2022/01/23 12:05:20;;;;;;;52.13;21.25;;;8.80;99.90;;;;;;4945088;28;20046;-89
2022/01/23 12:08:19;;;;;;;43.05;20.13;;;8.80;99.90;;;;;;4963255;28;20031;-88
2022/01/23 12:11:56;;;;;;;41.13;18.75;;;9.00;99.90;;;;;;4935191;28;20062;-89
2022/01/23 12:17:06;;;;;;;41.58;19.67;;;9.00;99.90;;;;;;4978165;28;20038;-89
2022/01/23 12:20:01;;;;;;;37.72;17.23;;;8.80;99.90;;;;;;4935018;28;20034;-89
2022/01/23 12:22:39;;;;;;;47.50;22.75;;;8.90;99.90;;;;;;4922159;28;20050;-89
2022/01/23 12:25:24;;;;;;;48.75;22.52;;;9.20;99.90;;;;;;4942614;28;20026;-89
2022/01/23 12:28:10;;;;;;;42.43;20.10;;;9.20;99.90;;;;;;4946397;28;20035;-89
2022/01/23 12:30:40;;;;;;;57.03;23.38;;;9.30;99.90;;;;;;4947363;28;20275;-89
2022/01/23 12:33:15;;;;;;;47.53;22.90;;;9.20;99.90;;;;;;4935189;28;20038;-87
2022/01/23 12:35:43;;;;;;;49.92;24.20;;;9.20;99.90;;;;;;4946633;28;21837;-87
2022/01/23 12:38:42;;;;;;;49.80;22.45;;;9.30;99.90;;;;;;4924895;28;20433;-88
2022/01/23 12:41:24;;;;;;;48.50;21.73;;;9.30;99.90;;;;;;4882006;28;20061;-88
2022/01/23 12:44:02;;;;;;;55.42;23.17;;;9.20;99.90;;;;;;4602677;28;10000499;-87
2022/01/23 12:46:41;;;;;;;61.10;25.88;;;9.30;99.90;;;;;;4934562;28;20073;-87
2022/01/23 12:49:16;;;;;;;61.75;24.52;;;9.40;99.90;;;;;;4963901;28;20035;-88
2022/01/23 12:51:42;;;;;;;60.55;25.45;;;9.30;99.90;;;;;;4969493;28;20041;-87
2022/01/23 12:54:19;;;;;;;57.78;22.52;;;9.40;99.90;;;;;;4946363;28;20134;-87
2022/01/23 12:56:52;;;;;;;56.67;22.65;;;9.50;99.90;;;;;;4946098;28;20060;-87
2022/01/23 12:59:30;;;;;;;55.70;24.05;;;9.40;99.90;;;;;;4918660;28;20433;-87
2022/01/23 13:02:01;;;;;;;52.90;19.42;;;9.40;99.90;;;;;;4934515;28;20121;-87
2022/01/23 13:04:31;;;;;;;60.58;22.75;;;9.00;99.90;;;;;;4915026;28;20041;-87
2022/01/23 13:07:02;;;;;;;70.63;28.90;;;9.00;99.90;;;;;;4929005;28;20045;-87
2022/01/23 13:09:36;;;;;;;69.97;26.08;;;9.30;99.90;;;;;;4919046;28;20027;-87
2022/01/23 13:14:43;;;;;;;59.15;24.42;;;9.40;99.90;;;;;;4928272;28;20035;-88
2022/01/23 13:17:32;;;;;;;49.00;21.05;;;9.50;99.90;;;;;;4943991;28;20438;-87
2022/01/23 13:26:24;;;;;;;53.92;24.83;;;9.60;99.90;;;;;;4947865;28;20039;-90
2022/01/23 13:30:50;;;;;;;58.45;24.92;;;9.50;99.90;;;;;;4948970;28;20109;-89
2022/01/23 13:33:23;;;;;;;61.25;27.15;;;9.50;99.90;;;;;;4935930;28;20027;-89
2022/01/23 13:35:51;;;;;;;68.03;25.52;;;9.50;99.90;;;;;;4918417;28;20034;-89
2022/01/23 13:38:18;;;;;;;53.05;23.45;;;9.50;99.90;;;;;;4933899;28;20334;-88
2022/01/23 13:40:44;;;;;;;52.00;24.55;;;9.50;99.90;;;;;;4945587;28;20027;-89
2022/01/23 13:59:39;;;;;;;55.33;24.98;;;9.50;99.90;;;;;;4983012;28;20030;-87
2022/01/23 14:02:19;;;;;;;53.03;24.27;;;9.40;99.90;;;;;;4941139;28;20038;-87
2022/01/23 14:04:54;;;;;;;52.70;24.13;;;9.50;99.90;;;;;;4943149;28;20043;-89
2022/01/23 14:07:24;;;;;;;44.05;21.95;;;9.40;99.90;;;;;;4943835;28;20038;-88
2022/01/23 14:09:50;;;;;;;50.67;22.35;;;9.50;99.90;;;;;;4937891;28;20648;-88
2022/01/23 14:12:17;;;;;;;58.42;25.38;;;9.40;99.90;;;;;;4937894;28;20485;-88
2022/01/23 14:15:05;;;;;;;53.13;22.92;;;9.40;99.90;;;;;;4937270;28;20085;-88
2022/01/23 14:17:35;;;;;;;57.97;24.42;;;9.30;99.90;;;;;;4937291;28;20494;-86
2022/01/23 14:20:16;;;;;;;46.08;21.33;;;9.30;99.90;;;;;;4937245;28;20114;-88
2022/01/23 14:22:43;;;;;;;50.03;22.50;;;9.20;99.90;;;;;;4951899;28;20062;-87
2022/01/23 14:25:16;;;;;;;53.95;24.20;;;9.20;99.90;;;;;;4938713;28;20031;-87
2022/01/23 14:27:44;;;;;;;51.85;24.52;;;9.20;99.90;;;;;;4949820;28;20683;-87
2022/01/23 14:30:14;;;;;;;57.13;25.20;;;9.10;99.90;;;;;;4937445;28;20034;-87
2022/01/23 14:32:46;;;;;;;53.05;24.10;;;9.10;99.90;;;;;;4934998;28;20035;-87
2022/01/23 14:35:15;;;;;;;55.40;23.02;;;9.10;99.90;;;;;;4955430;28;20046;-88
2022/01/23 14:37:42;;;;;;;43.55;20.00;;;9.00;99.90;;;;;;4933628;28;20042;-88
2022/01/23 14:40:14;;;;;;;51.92;22.80;;;9.00;99.90;;;;;;4964359;28;20401;-88
2022/01/23 14:42:39;;;;;;;53.13;23.70;;;8.90;99.90;;;;;;4963836;28;20490;-89
2022/01/23 14:45:06;;;;;;;57.20;24.98;;;9.00;99.90;;;;;;4951182;28;20034;-89
2022/01/23 14:47:39;;;;;;;49.05;23.52;;;8.90;99.90;;;;;;4952188;28;20022;-88
2022/01/23 14:50:10;;;;;;;49.88;22.83;;;8.90;99.90;;;;;;4954126;28;20564;-88
2022/01/23 14:52:36;;;;;;;49.42;22.33;;;8.80;99.90;;;;;;4931853;28;20391;-88
2022/01/23 14:55:02;;;;;;;56.17;25.48;;;8.80;99.90;;;;;;4952307;28;20031;-88
2022/01/23 14:57:30;;;;;;;52.90;24.85;;;8.80;99.90;;;;;;4933475;28;20058;-88
2022/01/23 14:59:58;;;;;;;51.30;25.25;;;8.70;99.90;;;;;;4925610;28;20034;-88
2022/01/23 15:02:23;;;;;;;56.00;24.17;;;8.70;99.90;;;;;;4949856;28;20069;-89
2022/01/23 15:04:50;;;;;;;56.45;25.17;;;8.80;99.90;;;;;;4947466;28;20039;-87
2022/01/23 15:07:18;;;;;;;44.30;21.15;;;8.60;99.90;;;;;;4928305;28;20042;-86
2022/01/23 15:09:45;;;;;;;47.58;22.67;;;8.60;99.90;;;;;;4948463;28;20023;-86
2022/01/23 15:12:11;;;;;;;52.17;23.58;;;8.50;99.90;;;;;;4928790;28;20037;-88
2022/01/23 15:14:55;;;;;;;57.72;25.65;;;8.40;99.90;;;;;;4925201;28;20039;-88
2022/01/23 15:17:21;;;;;;;58.10;25.42;;;8.50;99.90;;;;;;4917587;28;20027;-89
2022/01/23 15:19:47;;;;;;;51.47;22.42;;;8.40;99.90;;;;;;4935738;28;20061;-88
2022/01/23 15:22:13;;;;;;;59.95;25.70;;;8.40;99.90;;;;;;4937662;28;20041;-89
2022/01/23 15:24:38;;;;;;;48.75;23.17;;;8.40;99.90;;;;;;4941676;28;20035;-88
2022/01/23 15:27:04;;;;;;;53.17;24.58;;;8.30;99.90;;;;;;4950359;28;20035;-88
2022/01/23 15:29:30;;;;;;;47.40;24.02;;;8.30;99.90;;;;;;4933485;28;20034;-88
2022/01/23 15:31:56;;;;;;;47.70;22.80;;;8.20;99.90;;;;;;4928582;28;20441;-89
2022/01/23 15:34:24;;;;;;;54.53;23.90;;;8.20;99.90;;;;;;4927801;28;20042;-89
2022/01/23 15:36:52;;;;;;;50.88;24.45;;;8.20;99.90;;;;;;4944613;28;20031;-88
2022/01/23 15:39:19;;;;;;;54.28;24.05;;;8.10;99.90;;;;;;4935445;28;20042;-88
2022/01/23 15:41:53;;;;;;;51.90;24.75;;;8.00;99.90;;;;;;4926724;28;20041;-87
2022/01/23 15:44:18;;;;;;;44.95;22.80;;;8.00;99.90;;;;;;4926767;28;20026;-87
2022/01/23 15:46:47;;;;;;;46.63;24.00;;;7.90;99.90;;;;;;4923984;28;20042;-88
2022/01/23 15:49:15;;;;;;;49.08;23.02;;;7.90;99.90;;;;;;4923583;28;20038;-88
2022/01/23 15:51:46;;;;;;;51.47;24.25;;;7.90;99.90;;;;;;4948135;28;20424;-87
2022/01/23 15:54:12;;;;;;;47.92;22.23;;;7.80;99.90;;;;;;4935681;28;20042;-87
2022/01/23 15:56:37;;;;;;;48.03;21.80;;;7.80;99.90;;;;;;4926979;28;20038;-87
2022/01/23 15:59:07;;;;;;;50.90;24.45;;;7.70;99.90;;;;;;4951382;28;20034;-87
2022/01/23 16:01:35;;;;;;;52.25;24.42;;;7.70;99.90;;;;;;4947536;28;20035;-87
2022/01/23 16:04:01;;;;;;;52.13;24.35;;;7.60;99.90;;;;;;4930828;28;20034;-87
2022/01/23 16:06:27;;;;;;;46.42;22.92;;;7.50;99.90;;;;;;4932240;28;20559;-88
2022/01/23 16:08:52;;;;;;;45.38;21.45;;;7.50;99.90;;;;;;4930079;28;20035;-88
2022/01/23 16:11:18;;;;;;;46.33;22.05;;;7.50;99.90;;;;;;4935087;28;20031;-86
2022/01/23 16:13:49;;;;;;;57.40;25.73;;;7.50;99.90;;;;;;4935111;28;20525;-87
2022/01/23 16:16:15;;;;;;;44.13;22.10;;;7.40;99.90;;;;;;4915344;28;21002;-87
2022/01/23 16:18:41;;;;;;;46.92;23.45;;;7.40;99.90;;;;;;4939032;28;20035;-87
2022/01/23 16:21:12;;;;;;;44.60;23.10;;;7.30;99.90;;;;;;4948435;28;20045;-87
2022/01/23 16:23:49;;;;;;;45.40;22.60;;;7.30;99.90;;;;;;4940860;28;20490;-87
2022/01/23 16:26:17;;;;;;;42.90;21.90;;;7.20;99.90;;;;;;4926842;28;20023;-88
2022/01/23 16:29:03;;;;;;;41.80;21.00;;;7.20;99.90;;;;;;4910915;28;20027;-88
2022/01/23 16:31:43;;;;;;;;;;;7.20;99.90;;;;;;4908744;28;20162;-87
2022/01/23 16:34:13;;;;;;;44.67;21.65;;;7.10;99.90;;;;;;4957933;28;20381;-88